createdAt,value
2019-03-27T00:01:29.629Z,99673.19
2019-03-27T00:04:16.949Z,99675.30
2019-03-27T00:07:04.683Z,99674.09
2019-03-27T00:09:52.514Z,99683.04
2019-03-27T00:12:40.351Z,99665.20
2019-03-27T00:15:27.574Z,99676.61
2019-03-27T00:18:15.095Z,99676.48
2019-03-27T00:21:02.725Z,99674.70
2019-03-27T00:23:50.253Z,99678.38
2019-03-27T00:26:37.881Z,99681.60
2019-03-27T00:29:25.847Z,99676.21
2019-03-27T00:32:13.351Z,99668.14
2019-03-27T00:35:01.076Z,99667.33
2019-03-27T00:37:48.396Z,99664.82
2019-03-27T00:40:35.615Z,99676.21
2019-03-27T00:43:22.937Z,99677.52
2019-03-27T00:46:10.359Z,99668.51
2019-03-27T00:48:57.897Z,99677.42
2019-03-27T00:51:45.514Z,99675.38
2019-03-27T00:54:32.636Z,99675.61
2019-03-27T00:57:20.260Z,99682.23
2019-03-27T01:00:17.106Z,99675.80
2019-03-27T01:03:04.529Z,99677.05
2019-03-27T01:05:51.851Z,99685.72
2019-03-27T01:08:39.281Z,99689.72
2019-03-27T01:11:27.007Z,99690.65
2019-03-27T01:14:15.864Z,99689.20
2019-03-27T01:17:03.875Z,99687.42
2019-03-27T01:19:56.548Z,99687.89
2019-03-27T01:22:44.232Z,99691.50
2019-03-27T01:25:32.477Z,99688.04
2019-03-27T01:28:20.057Z,99685.13
2019-03-27T01:31:07.370Z,99684.34
2019-03-27T01:33:55.309Z,99686.44
2019-03-27T01:36:42.835Z,99683.81
2019-03-27T01:39:30.261Z,99688.16
2019-03-27T01:42:17.887Z,99692.78
2019-03-27T01:45:07.673Z,99686.14
2019-03-27T01:47:54.989Z,99692.13
2019-03-27T01:50:42.421Z,99681.87
2019-03-27T01:53:29.634Z,99687.17
2019-03-27T01:56:17.332Z,99688.87
2019-03-27T01:59:04.992Z,99684.70
2019-03-27T02:01:52.203Z,99691.41
2019-03-27T02:04:39.945Z,99686.69
2019-03-27T02:07:27.474Z,99692.34
2019-03-27T02:10:15.075Z,99689.09
2019-03-27T02:13:02.424Z,99691.39
2019-03-27T02:15:50.357Z,99693.91
2019-03-27T02:18:37.678Z,99693.95
2019-03-27T02:21:25.205Z,99701.38
2019-03-27T02:24:12.835Z,99699.16
2019-03-27T02:27:00.564Z,99704.46
2019-03-27T02:29:48.400Z,99709.56
2019-03-27T02:32:35.618Z,99707.12
2019-03-27T02:35:23.160Z,99703.71
2019-03-27T02:38:10.876Z,99711.16
2019-03-27T02:40:58.200Z,99711.48
2019-03-27T02:43:46.109Z,99712.72
2019-03-27T02:46:33.766Z,99715.19
2019-03-27T02:49:21.086Z,99715.40
2019-03-27T02:52:08.612Z,99712.25
2019-03-27T02:54:55.636Z,99713.02
2019-03-27T02:57:43.151Z,99710.74
2019-03-27T03:00:31.090Z,99707.97
2019-03-27T03:03:18.211Z,99710.53
2019-03-27T03:06:06.041Z,99707.17
2019-03-27T03:08:52.952Z,99702.50
2019-03-27T03:11:40.685Z,99703.41
2019-03-27T03:14:28.208Z,99704.43
2019-03-27T03:17:16.146Z,99711.81
2019-03-27T03:20:04.018Z,99709.41
2019-03-27T03:22:51.811Z,99709.53
2019-03-27T03:25:39.143Z,99713.95
2019-03-27T03:28:26.875Z,99714.95
2019-03-27T03:31:14.396Z,99710.84
2019-03-27T03:34:01.611Z,99711.30
2019-03-27T03:36:49.955Z,99714.84
2019-03-27T03:39:37.283Z,99716.27
2019-03-27T03:42:24.703Z,99710.24
2019-03-27T03:45:12.900Z,99716.23
2019-03-27T03:48:00.302Z,99714.29
2019-03-27T03:50:47.998Z,99718.75
2019-03-27T03:53:36.366Z,99720.59
2019-03-27T03:56:25.009Z,99728.45
2019-03-27T03:59:13.439Z,99733.23
2019-03-27T04:02:03.539Z,99739.41
2019-03-27T04:04:51.572Z,99734.95
2019-03-27T04:07:38.689Z,99733.98
2019-03-27T04:10:26.115Z,99739.99
2019-03-27T04:13:13.642Z,99739.55
2019-03-27T04:16:01.186Z,99734.42
2019-03-27T04:18:48.594Z,99733.32
2019-03-27T04:21:36.528Z,99735.01
2019-03-27T04:24:23.952Z,99740.28
2019-03-27T04:27:11.392Z,99751.80
2019-03-27T04:29:58.999Z,99754.05
2019-03-27T04:32:46.836Z,99755.44
2019-03-27T04:35:34.467Z,99755.34
2019-03-27T04:38:22.095Z,99748.36
2019-03-27T04:41:09.724Z,99751.47
2019-03-27T04:43:56.842Z,99752.58
2019-03-27T04:46:44.577Z,99751.41
2019-03-27T04:49:31.998Z,99753.39
2019-03-27T04:52:19.931Z,99762.30
2019-03-27T04:55:07.976Z,99765.55
2019-03-27T04:57:55.294Z,99765.86
2019-03-27T05:00:42.616Z,99773.46
2019-03-27T05:03:30.262Z,99766.22
2019-03-27T05:06:31.620Z,99764.01
2019-03-27T05:12:44.942Z,99774.94
2019-03-27T05:15:32.686Z,99771.05
2019-03-27T05:18:20.301Z,99768.93
2019-03-27T05:21:08.032Z,99774.20
2019-03-27T05:23:55.663Z,99769.38
2019-03-27T05:26:43.293Z,99770.56
2019-03-27T05:29:30.919Z,99773.83
2019-03-27T05:32:18.142Z,99778.16
2019-03-27T05:35:06.915Z,99774.70
2019-03-27T05:37:54.730Z,99774.28
2019-03-27T05:40:41.948Z,99775.70
2019-03-27T05:43:29.374Z,99776.35
2019-03-27T05:46:16.799Z,99769.08
2019-03-27T05:49:03.917Z,99762.20
2019-03-27T05:51:51.450Z,99766.41
2019-03-27T05:54:39.785Z,99773.37
2019-03-27T05:57:27.516Z,99783.14
2019-03-27T06:00:16.894Z,99794.55
2019-03-27T06:03:04.982Z,99786.71
2019-03-27T06:05:52.455Z,99790.34
2019-03-27T06:08:39.984Z,99792.31
2019-03-27T06:11:27.404Z,99798.08
2019-03-27T06:14:14.829Z,99802.16
2019-03-27T06:17:02.154Z,99807.58
2019-03-27T06:19:49.369Z,99804.21
2019-03-27T06:22:37.100Z,99807.16
2019-03-27T06:25:24.230Z,99803.73
2019-03-27T06:28:11.434Z,99802.45
2019-03-27T06:30:59.168Z,99794.42
2019-03-27T06:33:47.822Z,99802.70
2019-03-27T06:36:35.347Z,99814.66
2019-03-27T06:39:22.875Z,99813.67
2019-03-27T06:42:09.993Z,99812.84
2019-03-27T06:44:57.720Z,99818.34
2019-03-27T06:47:45.149Z,99816.90
2019-03-27T06:50:32.588Z,99817.28
2019-03-27T06:53:20.302Z,99823.59
2019-03-27T06:56:07.832Z,99833.59
2019-03-27T06:58:55.221Z,99840.28
2019-03-27T07:01:42.602Z,99833.17
2019-03-27T07:04:29.995Z,99835.81
2019-03-27T07:07:17.429Z,99829.92
2019-03-27T07:10:08.122Z,99842.44
2019-03-27T07:12:55.654Z,99835.01
2019-03-27T07:15:43.290Z,99840.03
2019-03-27T07:18:40.086Z,99842.17
2019-03-27T07:21:19.975Z,99850.19
2019-03-27T07:24:07.597Z,99857.69
2019-03-27T07:26:55.127Z,99857.58
2019-03-27T07:29:42.550Z,99863.24
2019-03-27T07:32:30.278Z,99862.41
2019-03-27T07:35:18.481Z,99861.92
2019-03-27T07:38:06.382Z,99861.99
2019-03-27T07:40:53.882Z,99866.77
2019-03-27T07:43:42.062Z,99867.32
2019-03-27T07:46:29.842Z,99867.93
2019-03-27T07:49:17.508Z,99862.98
2019-03-27T07:52:04.942Z,99861.96
2019-03-27T07:54:53.583Z,99859.95
2019-03-27T07:57:41.489Z,99861.27
2019-03-27T08:00:32.378Z,99861.40
2019-03-27T08:03:19.931Z,99857.48
2019-03-27T08:06:07.460Z,99865.83
2019-03-27T08:08:57.711Z,99863.61
2019-03-27T08:11:45.210Z,99872.03
2019-03-27T08:14:32.886Z,99869.08
2019-03-27T08:17:20.432Z,99868.12
2019-03-27T08:20:08.472Z,99864.31
2019-03-27T08:22:57.617Z,99867.27
2019-03-27T08:25:45.503Z,99868.38
2019-03-27T08:28:33.300Z,99862.67
2019-03-27T08:31:21.505Z,99862.43
2019-03-27T08:34:08.661Z,99866.72
2019-03-27T08:36:56.206Z,99876.61
2019-03-27T08:39:43.612Z,99872.92
2019-03-27T08:42:31.143Z,99873.16
2019-03-27T08:45:19.790Z,99872.92
2019-03-27T08:48:08.350Z,99879.70
2019-03-27T08:50:55.770Z,99886.06
2019-03-27T08:53:43.605Z,99883.29
2019-03-27T08:56:31.231Z,99881.13
2019-03-27T08:59:19.265Z,99885.77
2019-03-27T09:02:06.894Z,99888.48
2019-03-27T09:04:54.729Z,99887.72
2019-03-27T09:07:42.463Z,99888.75
2019-03-27T09:10:29.851Z,99897.14
2019-03-27T09:13:18.136Z,99897.34
2019-03-27T09:16:05.766Z,99894.49
2019-03-27T09:18:56.532Z,99891.37
2019-03-27T09:21:46.286Z,99894.13
2019-03-27T09:24:35.532Z,99891.81
2019-03-27T09:27:25.484Z,99894.51
2019-03-27T09:30:14.549Z,99890.20
2019-03-27T09:33:02.018Z,99900.37
2019-03-27T09:35:53.420Z,99891.52
2019-03-27T09:38:43.127Z,99896.35
2019-03-27T09:41:31.213Z,99904.51
2019-03-27T09:44:21.426Z,99897.75
2019-03-27T09:47:10.157Z,99901.15
2019-03-27T09:50:04.421Z,99905.20
2019-03-27T09:52:52.415Z,99902.03
2019-03-27T09:55:40.940Z,99891.75
2019-03-27T09:58:29.995Z,99900.18
2019-03-27T10:01:17.927Z,99902.44
2019-03-27T10:04:05.776Z,99888.68
2019-03-27T10:06:53.672Z,99896.91
2019-03-27T10:09:42.322Z,99889.94
2019-03-27T10:12:30.390Z,99886.84
2019-03-27T10:15:17.921Z,99889.99
2019-03-27T10:18:06.529Z,99886.95
2019-03-27T10:20:53.891Z,99888.41
2019-03-27T10:23:41.877Z,99893.16
2019-03-27T10:26:29.352Z,99886.26
2019-03-27T10:29:17.082Z,99884.85
2019-03-27T10:32:04.814Z,99885.61
2019-03-27T10:34:52.342Z,99887.50
2019-03-27T10:37:40.071Z,99888.81
2019-03-27T10:40:28.008Z,99885.38
2019-03-27T10:43:15.943Z,99880.94
2019-03-27T10:46:03.675Z,99879.28
2019-03-27T10:48:52.821Z,99877.89
2019-03-27T10:51:39.856Z,99878.84
2019-03-27T10:54:27.180Z,99882.16
2019-03-27T10:57:14.501Z,99878.65
2019-03-27T11:00:02.025Z,99872.95
2019-03-27T11:02:49.655Z,99880.95
2019-03-27T11:05:37.489Z,99881.27
2019-03-27T11:08:24.789Z,99880.07
2019-03-27T11:11:12.136Z,99882.94
2019-03-27T11:13:59.558Z,99893.13
2019-03-27T11:16:47.084Z,99880.31
2019-03-27T11:19:34.606Z,99885.91
2019-03-27T11:22:22.340Z,99881.42
2019-03-27T11:25:11.095Z,99882.00
2019-03-27T11:27:58.110Z,99879.58
2019-03-27T11:30:48.400Z,99881.95
2019-03-27T11:33:36.131Z,99883.80
2019-03-27T11:36:23.758Z,99879.59
2019-03-27T11:39:11.290Z,99879.81
2019-03-27T11:42:00.818Z,99882.67
2019-03-27T11:44:48.287Z,99878.59
2019-03-27T11:47:35.709Z,99875.96
2019-03-27T11:50:23.236Z,99874.56
2019-03-27T11:53:10.766Z,99875.95
2019-03-27T11:55:58.187Z,99886.89
2019-03-27T11:58:45.920Z,99881.16
2019-03-27T12:01:39.586Z,99885.83
2019-03-27T12:04:22.405Z,99887.48
2019-03-27T12:07:09.930Z,99878.09
2019-03-27T12:09:57.357Z,99870.93
2019-03-27T12:12:48.076Z,99872.83
2019-03-27T12:15:39.871Z,99882.27
2019-03-27T12:18:27.410Z,99878.88
2019-03-27T12:21:15.142Z,99874.32
2019-03-27T12:24:02.570Z,99872.48
2019-03-27T12:26:50.100Z,99874.92
2019-03-27T12:29:37.413Z,99886.05
2019-03-27T12:32:25.242Z,99877.55
2019-03-27T12:35:12.469Z,99872.05
2019-03-27T12:38:00.300Z,99876.02
2019-03-27T12:40:48.134Z,99871.03
2019-03-27T12:43:35.661Z,99864.94
2019-03-27T12:46:23.086Z,99873.23
2019-03-27T12:49:10.920Z,99869.98
2019-03-27T12:51:58.549Z,99867.27
2019-03-27T12:54:46.074Z,99865.28
2019-03-27T12:57:33.601Z,99866.30
2019-03-27T13:00:22.115Z,99867.16
2019-03-27T13:03:09.784Z,99870.61
2019-03-27T13:05:56.803Z,99867.91
2019-03-27T13:08:44.124Z,99861.57
2019-03-27T13:11:31.549Z,99859.98
2019-03-27T13:14:19.273Z,99851.97
2019-03-27T13:17:06.905Z,99854.18
2019-03-27T13:19:54.430Z,99847.65
2019-03-27T13:22:42.067Z,99849.03
2019-03-27T13:25:29.695Z,99848.95
2019-03-27T13:28:17.241Z,99843.45
2019-03-27T13:31:04.753Z,99838.84
2019-03-27T13:33:51.969Z,99839.56
2019-03-27T13:36:41.235Z,99838.58
2019-03-27T13:39:28.874Z,99842.64
2019-03-27T13:42:16.087Z,99845.24
2019-03-27T13:45:05.567Z,99845.24
2019-03-27T13:47:53.382Z,99839.31
2019-03-27T13:50:41.317Z,99835.45
2019-03-27T13:53:28.741Z,99841.59
2019-03-27T13:56:15.756Z,99845.11
2019-03-27T13:59:03.285Z,99832.67
2019-03-27T14:01:50.400Z,99829.58
2019-03-27T14:04:37.927Z,99823.14
2019-03-27T14:07:25.455Z,99826.28
2019-03-27T14:10:13.391Z,99825.13
2019-03-27T14:13:00.514Z,99824.24
2019-03-27T14:15:48.031Z,99824.24
2019-03-27T14:18:35.867Z,99817.68
2019-03-27T14:21:23.578Z,99811.22
2019-03-27T14:24:11.122Z,99814.59
2019-03-27T14:26:58.550Z,99807.62
2019-03-27T14:29:46.074Z,99807.78
2019-03-27T14:32:33.504Z,99803.43
2019-03-27T14:35:21.347Z,99718.73
2019-03-27T14:38:10.193Z,99804.26
2019-03-27T14:40:57.822Z,99807.53
2019-03-27T14:43:45.040Z,99807.32
2019-03-27T14:46:33.476Z,99807.61
2019-03-27T14:49:21.014Z,99808.25
2019-03-27T14:52:08.784Z,99805.48
2019-03-27T14:54:56.273Z,99806.27
2019-03-27T14:57:44.310Z,99812.35
2019-03-27T15:00:32.146Z,99804.97
2019-03-27T15:03:19.690Z,99808.16
2019-03-27T15:06:06.997Z,99806.47
2019-03-27T15:08:54.724Z,99800.12
2019-03-27T15:11:42.869Z,99801.93
2019-03-27T15:14:30.292Z,99799.86
2019-03-27T15:17:17.920Z,99799.98
2019-03-27T15:20:09.952Z,99801.47
2019-03-27T15:22:57.067Z,99800.89
2019-03-27T15:25:45.106Z,99799.20
2019-03-27T15:28:32.838Z,99795.45
2019-03-27T15:31:21.050Z,99794.37
2019-03-27T15:34:08.822Z,99794.05
2019-03-27T15:36:56.647Z,99791.69
2019-03-27T15:39:44.381Z,99792.59
2019-03-27T15:42:31.935Z,99794.91
2019-03-27T15:45:19.737Z,99792.39
2019-03-27T15:48:07.066Z,99803.77
2019-03-27T15:50:58.737Z,99792.02
2019-03-27T15:53:43.550Z,99785.60
2019-03-27T15:56:31.176Z,99787.80
2019-03-27T15:59:18.700Z,99786.66
2019-03-27T16:02:07.380Z,99785.68
2019-03-27T16:04:54.678Z,99790.38
2019-03-27T16:07:42.204Z,99796.91
2019-03-27T16:10:29.732Z,99801.69
2019-03-27T16:13:17.877Z,99799.09
2019-03-27T16:16:05.194Z,99800.49
2019-03-27T16:18:53.176Z,99796.72
2019-03-27T16:21:40.763Z,99799.77
2019-03-27T16:24:28.495Z,99803.46
2019-03-27T16:27:15.915Z,99800.12
2019-03-27T16:30:03.772Z,99799.33
2019-03-27T16:32:51.504Z,99802.52
2019-03-27T16:35:39.312Z,99807.75
2019-03-27T16:38:26.839Z,99808.78
2019-03-27T16:41:13.957Z,99806.69
2019-03-27T16:44:01.689Z,99803.31
2019-03-27T16:46:49.012Z,99802.41
2019-03-27T16:49:36.540Z,99807.94
2019-03-27T16:52:23.962Z,99801.14
2019-03-27T16:55:11.886Z,99811.23
2019-03-27T16:57:59.632Z,99813.17
2019-03-27T17:00:47.129Z,99816.05
2019-03-27T17:03:34.476Z,99824.39
2019-03-27T17:06:22.626Z,99821.55
2019-03-27T17:09:09.871Z,99825.25
2019-03-27T17:11:57.261Z,99832.14
2019-03-27T17:14:44.791Z,99826.16
2019-03-27T17:17:32.218Z,99826.61
2019-03-27T17:20:19.944Z,99830.30
2019-03-27T17:23:17.954Z,99834.45
2019-03-27T17:25:56.906Z,99836.88
2019-03-27T17:28:44.471Z,99833.10
2019-03-27T17:31:32.317Z,99842.23
2019-03-27T17:34:19.530Z,99846.91
2019-03-27T17:37:07.357Z,99851.34
2019-03-27T17:39:54.371Z,99850.22
2019-03-27T17:42:41.898Z,99856.37
2019-03-27T17:45:29.529Z,99848.37
2019-03-27T17:48:17.368Z,99853.14
2019-03-27T17:51:04.888Z,99855.78
2019-03-27T17:53:52.720Z,99857.93
2019-03-27T17:56:40.864Z,99867.84
2019-03-27T17:59:28.122Z,99872.34
2019-03-27T18:02:15.715Z,99872.15
2019-03-27T18:05:03.663Z,99877.97
2019-03-27T18:07:51.380Z,99879.81
2019-03-27T18:10:38.499Z,99882.16
2019-03-27T18:13:26.360Z,99887.94
2019-03-27T18:16:13.459Z,99885.35
2019-03-27T18:19:00.871Z,99885.07
2019-03-27T18:21:48.704Z,99890.48
2019-03-27T18:24:36.235Z,99895.03
2019-03-27T18:27:24.939Z,99900.05
2019-03-27T18:30:13.402Z,99902.52
2019-03-27T18:33:01.173Z,99903.11
2019-03-27T18:35:48.392Z,99901.75
2019-03-27T18:38:35.940Z,99900.19
2019-03-27T18:41:24.468Z,99901.59
2019-03-27T18:44:12.216Z,99900.08
2019-03-27T18:46:59.721Z,99904.39
2019-03-27T18:49:47.613Z,99910.06
2019-03-27T18:52:35.087Z,99913.56
2019-03-27T18:55:26.816Z,99914.30
2019-03-27T18:58:11.683Z,99908.69
2019-03-27T19:00:59.818Z,99921.98
2019-03-27T19:03:47.543Z,99919.41
2019-03-27T19:06:35.074Z,99927.02
2019-03-27T19:09:22.627Z,99931.08
2019-03-27T19:12:10.225Z,99933.34
2019-03-27T19:14:57.866Z,99929.19
2019-03-27T19:17:45.176Z,99931.06
2019-03-27T19:20:32.830Z,99930.27
2019-03-27T19:23:20.742Z,99927.28
2019-03-27T19:26:08.370Z,99933.37
2019-03-27T19:28:56.102Z,99933.26
2019-03-27T19:31:43.936Z,99934.34
2019-03-27T19:34:31.673Z,99928.77
2019-03-27T19:37:19.607Z,99934.03
2019-03-27T19:40:07.361Z,99936.28
2019-03-27T19:42:55.376Z,99944.78
2019-03-27T19:45:42.797Z,99942.00
2019-03-27T19:48:30.938Z,99944.63
2019-03-27T19:51:18.467Z,99942.48
2019-03-27T19:54:06.402Z,99947.84
2019-03-27T19:56:55.775Z,99940.16
2019-03-27T19:59:43.297Z,99940.75
2019-03-27T20:02:30.825Z,99947.78
2019-03-27T20:05:18.725Z,99940.86
2019-03-27T20:08:06.183Z,99941.48
2019-03-27T20:10:53.618Z,99947.72
2019-03-27T20:13:41.139Z,99940.06
2019-03-27T20:16:28.867Z,99947.00
2019-03-27T20:19:16.810Z,99949.45
2019-03-27T20:22:04.534Z,99953.63
2019-03-27T20:24:51.702Z,99958.30
2019-03-27T20:27:39.488Z,99949.84
2019-03-27T20:30:27.424Z,99956.55
2019-03-27T20:33:14.855Z,99958.13
2019-03-27T20:36:03.125Z,99947.36
2019-03-27T20:38:51.131Z,99958.96
2019-03-27T20:41:38.247Z,99951.62
2019-03-27T20:44:25.464Z,99966.37
2019-03-27T20:47:15.964Z,99962.69
2019-03-27T20:50:04.001Z,99970.13
2019-03-27T20:52:51.634Z,99961.84
2019-03-27T20:55:39.566Z,99967.72
2019-03-27T20:58:27.502Z,99964.95
2019-03-27T21:01:15.131Z,99962.40
2019-03-27T21:04:03.162Z,99969.66
2019-03-27T21:06:50.629Z,99970.09
2019-03-27T21:09:38.528Z,99976.29
2019-03-27T21:12:26.165Z,99977.97
2019-03-27T21:15:13.889Z,99975.34
2019-03-27T21:18:01.525Z,99970.67
2019-03-27T21:20:49.250Z,99971.77
2019-03-27T21:23:36.572Z,99973.19
2019-03-27T21:26:23.693Z,99975.59
2019-03-27T21:29:11.114Z,99971.91
2019-03-27T21:31:58.342Z,99972.50
2019-03-27T21:34:46.065Z,99968.70
2019-03-27T21:37:33.593Z,99977.42
2019-03-27T21:40:21.441Z,99982.16
2019-03-27T21:43:09.263Z,99979.42
2019-03-27T21:45:56.788Z,99983.00
2019-03-27T21:48:44.211Z,99984.34
2019-03-27T21:51:32.177Z,99978.26
2019-03-27T21:54:19.778Z,99996.66
2019-03-27T21:57:07.198Z,99993.56
2019-03-27T21:59:54.980Z,99991.89
2019-03-27T22:02:42.663Z,99990.36
2019-03-27T22:05:29.764Z,99997.25
2019-03-27T22:08:17.511Z,99994.23
2019-03-27T22:11:04.942Z,99997.58
2019-03-27T22:13:52.667Z,100003.45
2019-03-27T22:16:40.094Z,100009.17
2019-03-27T22:19:27.617Z,100002.50
2019-03-27T22:22:15.458Z,100005.92
2019-03-27T22:25:03.083Z,100004.03
2019-03-27T22:27:50.503Z,100007.64
2019-03-27T22:30:38.350Z,100009.78
2019-03-27T22:33:26.173Z,100010.98
2019-03-27T22:36:14.010Z,100005.40
2019-03-27T22:39:01.227Z,100000.73
2019-03-27T22:41:49.165Z,100004.42
2019-03-27T22:44:36.590Z,100013.39
2019-03-27T22:47:24.112Z,100008.13
2019-03-27T22:50:11.638Z,100016.61
2019-03-27T22:52:59.373Z,100010.28
2019-03-27T22:55:50.108Z,100006.47
2019-03-27T22:58:35.756Z,100010.51
2019-03-27T23:01:22.871Z,100006.58
2019-03-27T23:04:11.260Z,100010.88
2019-03-27T23:06:58.845Z,100011.23
2019-03-27T23:09:46.278Z,100013.38
2019-03-27T23:12:33.804Z,100008.36
2019-03-27T23:15:21.738Z,100005.51
2019-03-27T23:18:08.751Z,100011.23
2019-03-27T23:20:56.276Z,100015.17
2019-03-27T23:23:44.113Z,100014.22
2019-03-27T23:26:31.638Z,100011.23
2019-03-27T23:29:18.763Z,100015.05
2019-03-27T23:32:06.688Z,100012.70
2019-03-27T23:34:54.417Z,99924.95
2019-03-27T23:37:46.526Z,100015.34
2019-03-27T23:40:38.311Z,100020.37
2019-03-27T23:43:25.506Z,100015.03
2019-03-27T23:46:13.136Z,100015.03
2019-03-27T23:49:00.451Z,100015.84
2019-03-27T23:51:48.132Z,100013.83
2019-03-27T23:54:35.707Z,100015.11
2019-03-27T23:57:23.336Z,100008.90
